createdAt,value
2023-10-20T00:04:42.908Z,18.23
2023-10-20T00:07:10.005Z,18.42
2023-10-20T00:09:37.116Z,16.25
2023-10-20T00:12:05.858Z,17.20
2023-10-20T00:14:33.211Z,16.05
2023-10-20T00:17:00.534Z,17.33
2023-10-20T00:19:27.646Z,16.88
2023-10-20T00:21:55.244Z,17.05
2023-10-20T00:24:23.953Z,17.25
2023-10-20T00:26:51.070Z,15.45
2023-10-20T00:29:18.209Z,18.33
2023-10-20T00:31:45.305Z,16.92
2023-10-20T00:34:12.449Z,17.80
2023-10-20T00:36:39.857Z,17.38
2023-10-20T00:39:07.560Z,17.50
2023-10-20T00:41:36.880Z,17.60
2023-10-20T00:44:04.396Z,17.98
2023-10-20T00:46:32.081Z,18.83
2023-10-20T00:48:59.361Z,19.40
2023-10-20T00:51:26.544Z,18.38
2023-10-20T00:53:53.731Z,19.95
2023-10-20T00:56:20.868Z,19.75
2023-10-20T00:58:48.903Z,18.33
2023-10-20T01:01:16.055Z,17.52
2023-10-20T01:03:43.230Z,19.23
2023-10-20T01:06:12.025Z,17.10
2023-10-20T01:08:39.198Z,18.17
2023-10-20T01:11:06.941Z,17.58
2023-10-20T01:13:34.080Z,16.25
2023-10-20T01:16:01.272Z,18.70
2023-10-20T01:18:28.397Z,17.27
2023-10-20T01:20:56.124Z,15.55
2023-10-20T01:23:23.317Z,17.00
2023-10-20T01:25:51.673Z,16.52
2023-10-20T01:28:20.305Z,18.15
2023-10-20T01:30:47.575Z,16.77
2023-10-20T01:33:14.868Z,17.13
2023-10-20T01:35:42.252Z,15.13
2023-10-20T01:38:09.364Z,16.95
2023-10-20T01:40:36.725Z,17.15
2023-10-20T01:43:03.844Z,15.40
2023-10-20T01:45:31.040Z,17.00
2023-10-20T01:47:58.302Z,15.80
2023-10-20T01:50:25.912Z,16.92
2023-10-20T01:52:53.032Z,16.23
2023-10-20T01:55:20.152Z,16.70
2023-10-20T01:57:47.322Z,16.02
2023-10-20T02:00:15.044Z,16.65
2023-10-20T02:02:42.817Z,16.63
2023-10-20T02:05:10.416Z,18.35
2023-10-20T02:07:38.162Z,17.17
2023-10-20T02:10:07.824Z,16.45
2023-10-20T02:12:35.378Z,15.07
2023-10-20T02:15:02.508Z,17.20
2023-10-20T02:17:30.108Z,17.00
2023-10-20T02:19:57.284Z,16.58
2023-10-20T02:22:24.336Z,17.25
2023-10-20T02:24:51.467Z,17.08
2023-10-20T02:27:18.591Z,17.30
2023-10-20T02:29:45.672Z,16.23
2023-10-20T02:32:13.644Z,16.20
2023-10-20T02:34:41.024Z,15.73
2023-10-20T02:37:08.377Z,16.25
2023-10-20T02:39:35.477Z,18.23
2023-10-20T02:42:02.599Z,17.83
2023-10-20T02:44:31.352Z,17.60
2023-10-20T02:46:58.944Z,15.35
2023-10-20T02:49:26.105Z,18.30
2023-10-20T02:51:53.179Z,16.90
2023-10-20T02:54:20.265Z,17.05
2023-10-20T02:56:47.409Z,17.88
2023-10-20T02:59:14.564Z,17.98
2023-10-20T03:01:41.648Z,19.10
2023-10-20T03:04:08.991Z,18.73
2023-10-20T03:06:36.163Z,18.58
2023-10-20T03:09:04.169Z,17.83
2023-10-20T03:11:31.312Z,18.50
2023-10-20T03:13:58.429Z,17.45
2023-10-20T03:16:27.923Z,18.38
2023-10-20T03:18:55.085Z,17.13
2023-10-20T03:21:22.788Z,17.27
2023-10-20T03:23:49.939Z,17.73
2023-10-20T03:26:17.231Z,19.65
2023-10-20T03:28:44.808Z,18.20
2023-10-20T03:31:12.135Z,19.10
2023-10-20T03:33:39.330Z,17.23
2023-10-20T03:36:06.941Z,18.33
2023-10-20T03:38:34.315Z,19.63
2023-10-20T03:41:08.886Z,18.88
2023-10-20T03:43:36.712Z,17.85
2023-10-20T03:46:05.365Z,17.77
2023-10-20T03:48:34.907Z,17.83
2023-10-20T03:51:05.604Z,19.15
2023-10-20T03:53:42.650Z,20.45
2023-10-20T03:56:10.706Z,19.42
2023-10-20T03:58:38.265Z,19.20
2023-10-20T04:01:07.911Z,20.27
2023-10-20T04:03:35.183Z,21.17
2023-10-20T04:06:07.492Z,19.85
2023-10-20T04:08:35.324Z,18.90
2023-10-20T04:11:03.208Z,20.02
2023-10-20T04:13:30.661Z,18.77
2023-10-20T04:15:58.076Z,18.63
2023-10-20T04:18:25.315Z,19.67
2023-10-20T04:20:58.592Z,19.80
2023-10-20T04:23:27.406Z,19.40
2023-10-20T04:25:54.736Z,21.27
2023-10-20T04:28:29.324Z,19.83
2023-10-20T04:31:15.222Z,21.45
2023-10-20T04:34:01.150Z,22.25
2023-10-20T04:36:47.221Z,21.77
2023-10-20T04:39:33.190Z,22.48
2023-10-20T04:42:19.060Z,22.27
2023-10-20T04:44:49.329Z,20.73
2023-10-20T04:47:26.515Z,22.17
2023-10-20T04:50:03.015Z,23.90
2023-10-20T04:52:49.318Z,22.45
2023-10-20T04:55:16.376Z,24.05
2023-10-20T04:57:52.603Z,21.55
2023-10-20T05:00:23.082Z,23.02
2023-10-20T05:03:03.324Z,21.15
2023-10-20T05:05:44.215Z,21.55
2023-10-20T05:08:14.460Z,20.88
2023-10-20T05:10:43.202Z,23.90
2023-10-20T05:13:10.790Z,22.55
2023-10-20T05:15:41.665Z,20.48
2023-10-20T05:18:16.397Z,23.20
2023-10-20T05:20:44.253Z,20.75
2023-10-20T05:23:16.164Z,22.23
2023-10-20T05:25:50.308Z,21.50
2023-10-20T05:28:17.830Z,22.77
2023-10-20T05:30:45.608Z,23.77
2023-10-20T05:33:13.791Z,21.90
2023-10-20T05:35:41.968Z,21.35
2023-10-20T05:38:09.759Z,23.48
2023-10-20T05:40:37.561Z,23.63
2023-10-20T05:43:06.717Z,21.13
2023-10-20T05:45:41.355Z,21.65
2023-10-20T05:48:09.547Z,23.70
2023-10-20T05:50:37.429Z,23.48
2023-10-20T05:53:04.957Z,21.98
2023-10-20T05:55:33.420Z,21.65
2023-10-20T05:58:00.647Z,22.05
2023-10-20T06:00:27.819Z,22.88
2023-10-20T06:02:56.232Z,22.42
2023-10-20T06:05:23.766Z,22.92
2023-10-20T06:07:51.105Z,23.17
2023-10-20T06:10:24.256Z,21.23
2023-10-20T06:12:55.605Z,22.83
2023-10-20T06:15:23.059Z,20.75
2023-10-20T06:17:51.118Z,24.42
2023-10-20T06:20:18.516Z,23.35
2023-10-20T06:22:45.715Z,22.08
2023-10-20T06:25:16.117Z,21.75
2023-10-20T06:27:43.845Z,23.48
2023-10-20T06:30:15.879Z,23.70
2023-10-20T06:32:46.545Z,22.67
2023-10-20T06:35:18.049Z,23.65
2023-10-20T06:37:55.833Z,24.15
2023-10-20T06:40:23.010Z,21.60
2023-10-20T06:42:50.100Z,22.33
2023-10-20T06:45:17.232Z,23.90
2023-10-20T06:47:44.767Z,23.85
2023-10-20T06:50:12.121Z,24.40
2023-10-20T06:52:39.542Z,23.67
2023-10-20T06:57:37.475Z,23.23
2023-10-20T07:00:07.653Z,22.88
2023-10-20T07:02:35.267Z,23.65
2023-10-20T07:05:03.019Z,23.25
2023-10-20T07:07:30.116Z,19.80
2023-10-20T07:09:57.685Z,22.90
2023-10-20T07:12:24.840Z,24.02
2023-10-20T07:14:52.045Z,22.70
2023-10-20T07:17:19.195Z,23.27
2023-10-20T07:19:46.376Z,24.33
2023-10-20T07:22:13.728Z,21.45
2023-10-20T07:24:42.759Z,22.67
2023-10-20T07:27:10.112Z,22.40
2023-10-20T07:29:41.445Z,22.33
2023-10-20T07:32:13.174Z,19.20
2023-10-20T07:34:40.471Z,18.98
2023-10-20T07:37:07.926Z,23.70
2023-10-20T07:39:35.577Z,21.60
2023-10-20T07:42:03.543Z,19.88
2023-10-20T07:44:31.853Z,19.13
2023-10-20T07:46:59.308Z,21.23
2023-10-20T07:49:26.399Z,21.73
2023-10-20T07:51:53.677Z,22.40
2023-10-20T07:54:21.419Z,22.15
2023-10-20T07:56:48.557Z,21.10
2023-10-20T07:59:15.870Z,21.63
2023-10-20T08:01:42.971Z,20.33
2023-10-20T08:04:10.325Z,21.05
2023-10-20T08:06:37.880Z,22.63
2023-10-20T08:09:05.706Z,22.58
2023-10-20T08:11:32.838Z,19.85
2023-10-20T08:14:00.438Z,20.95
2023-10-20T08:16:27.625Z,22.48
2023-10-20T08:18:54.916Z,21.23
2023-10-20T08:21:27.317Z,21.00
2023-10-20T08:23:54.538Z,22.23
2023-10-20T08:26:22.995Z,21.20
2023-10-20T08:28:50.523Z,21.10
2023-10-20T08:31:18.705Z,20.83
2023-10-20T08:33:46.306Z,21.50
2023-10-20T08:36:15.853Z,21.20
2023-10-20T08:38:44.087Z,18.02
2023-10-20T08:41:13.866Z,20.23
2023-10-20T08:43:42.396Z,19.85
2023-10-20T08:46:10.190Z,18.63
2023-10-20T08:48:41.523Z,18.95
2023-10-20T08:51:09.669Z,18.33
2023-10-20T08:53:39.957Z,17.40
2023-10-20T08:56:08.310Z,19.75
2023-10-20T08:58:36.266Z,18.48
2023-10-20T09:01:04.397Z,18.35
2023-10-20T09:03:45.472Z,17.38
2023-10-20T09:06:15.571Z,18.15
2023-10-20T09:08:44.802Z,17.27
2023-10-20T09:11:13.064Z,18.00
2023-10-20T09:13:42.117Z,17.40
2023-10-20T09:16:11.426Z,18.55
2023-10-20T09:18:46.456Z,16.52
2023-10-20T09:21:14.815Z,16.33
2023-10-20T09:23:42.047Z,17.15
2023-10-20T09:26:10.129Z,17.02
2023-10-20T09:28:38.203Z,17.63
2023-10-20T09:31:05.697Z,16.50
2023-10-20T09:33:33.098Z,17.92
2023-10-20T09:36:00.528Z,16.98
2023-10-20T09:38:28.481Z,17.17
2023-10-20T09:41:00.147Z,17.60
2023-10-20T09:43:32.184Z,17.45
2023-10-20T09:46:08.913Z,17.05
2023-10-20T09:48:37.408Z,16.85
2023-10-20T09:51:05.790Z,15.57
2023-10-20T09:53:33.075Z,16.33
2023-10-20T09:56:00.423Z,15.77
2023-10-20T09:58:28.065Z,16.70
2023-10-20T10:00:56.939Z,17.73
2023-10-20T10:03:31.097Z,16.13
2023-10-20T10:06:01.731Z,15.02
2023-10-20T10:08:29.017Z,13.25
2023-10-20T10:10:56.090Z,15.02
2023-10-20T10:13:33.738Z,13.38
2023-10-20T10:16:11.682Z,14.85
2023-10-20T10:18:46.165Z,13.00
2023-10-20T10:21:25.441Z,14.82
2023-10-20T10:24:10.942Z,14.10
2023-10-20T10:26:53.592Z,14.25
2023-10-20T10:29:22.436Z,14.38
2023-10-20T10:32:03.059Z,13.60
2023-10-20T10:34:46.001Z,13.93
2023-10-20T10:37:13.538Z,14.27
2023-10-20T10:39:41.509Z,13.77
2023-10-20T10:42:08.683Z,13.50
2023-10-20T10:44:39.946Z,12.88
2023-10-20T10:47:08.112Z,13.98
2023-10-20T10:49:35.318Z,11.80
2023-10-20T10:52:08.245Z,12.00
2023-10-20T10:54:36.723Z,11.35
2023-10-20T10:57:04.967Z,10.38
2023-10-20T10:59:32.672Z,10.50
2023-10-20T11:02:04.367Z,11.90
2023-10-20T11:04:31.967Z,11.48
2023-10-20T11:06:59.559Z,11.32
2023-10-20T11:09:31.619Z,11.90
2023-10-20T11:11:58.785Z,11.05
2023-10-20T11:14:26.603Z,12.02
2023-10-20T11:16:54.486Z,10.77
2023-10-20T11:19:21.868Z,9.32
2023-10-20T11:21:50.190Z,10.65
2023-10-20T11:24:26.825Z,9.93
2023-10-20T11:27:05.324Z,10.07
2023-10-20T11:29:46.779Z,10.25
2023-10-20T11:32:21.410Z,9.45
2023-10-20T11:34:48.567Z,9.57
2023-10-20T11:37:16.256Z,9.27
2023-10-20T11:39:43.446Z,7.72
2023-10-20T11:42:11.622Z,8.15
2023-10-20T11:44:38.345Z,8.25
2023-10-20T11:47:05.023Z,7.95
2023-10-20T11:49:31.726Z,7.18
2023-10-20T11:51:58.546Z,7.15
2023-10-20T11:54:25.236Z,5.75
2023-10-20T11:56:51.956Z,6.70
2023-10-20T11:59:18.667Z,5.68
2023-10-20T12:01:45.941Z,5.80
2023-10-20T12:04:13.134Z,5.13
2023-10-20T12:06:40.515Z,6.10
2023-10-20T12:09:13.741Z,5.70
2023-10-20T12:11:42.407Z,5.13
2023-10-20T12:14:10.440Z,5.70
2023-10-20T12:16:37.605Z,5.70
2023-10-20T12:19:07.273Z,6.35
2023-10-20T12:21:34.466Z,5.85
2023-10-20T12:24:01.639Z,5.43
2023-10-20T12:26:28.852Z,5.15
2023-10-20T12:28:58.073Z,4.88
2023-10-20T12:31:26.032Z,4.20
2023-10-20T12:33:53.234Z,4.15
2023-10-20T12:36:20.439Z,4.93
2023-10-20T12:38:48.343Z,5.13
2023-10-20T12:41:15.958Z,5.85
2023-10-20T12:43:43.938Z,4.00
2023-10-20T12:46:13.984Z,4.18
2023-10-20T12:48:41.606Z,3.85
2023-10-20T12:51:13.336Z,2.92
2023-10-20T12:53:41.083Z,3.90
2023-10-20T12:56:08.908Z,2.67
2023-10-20T12:58:36.644Z,2.90
2023-10-20T13:01:03.825Z,3.15
2023-10-20T13:03:31.224Z,3.20
2023-10-20T13:05:58.456Z,2.83
2023-10-20T13:08:25.770Z,2.42
2023-10-20T13:10:53.020Z,3.20
2023-10-20T13:13:20.400Z,3.53
2023-10-20T13:15:47.506Z,3.30
2023-10-20T13:18:15.212Z,3.03
2023-10-20T13:20:42.878Z,3.22
2023-10-20T13:23:10.080Z,2.72
2023-10-20T13:25:37.182Z,2.63
2023-10-20T13:28:06.881Z,3.38
2023-10-20T13:30:33.999Z,2.90
2023-10-20T13:33:05.170Z,3.03
2023-10-20T13:35:37.485Z,2.08
2023-10-20T13:38:17.601Z,2.20
2023-10-20T13:40:45.073Z,2.03
2023-10-20T13:43:12.270Z,2.10
2023-10-20T13:45:39.335Z,2.17
2023-10-20T13:48:07.300Z,2.83
2023-10-20T13:50:34.649Z,2.63
2023-10-20T13:53:01.778Z,2.45
2023-10-20T13:55:29.323Z,2.25
2023-10-20T13:57:56.577Z,1.92
2023-10-20T14:00:23.959Z,2.03
2023-10-20T14:02:51.611Z,2.58
2023-10-20T14:05:22.979Z,2.45
2023-10-20T14:07:50.259Z,2.05
2023-10-20T14:10:18.552Z,2.15
2023-10-20T14:12:45.975Z,1.80
2023-10-20T14:15:13.505Z,1.90
2023-10-20T14:17:40.771Z,2.13
2023-10-20T14:20:09.906Z,2.25
2023-10-20T14:22:36.976Z,2.03
2023-10-20T14:25:04.416Z,2.42
2023-10-20T14:27:40.191Z,2.22
2023-10-20T14:30:08.264Z,2.20
2023-10-20T14:32:35.629Z,2.40
2023-10-20T14:35:03.459Z,4.55
2023-10-20T14:37:30.951Z,4.55
2023-10-20T14:39:58.724Z,2.60
2023-10-20T14:42:26.000Z,2.15
2023-10-20T14:44:53.401Z,2.10
2023-10-20T14:47:20.657Z,1.80
2023-10-20T14:49:47.753Z,2.30
2023-10-20T14:52:14.936Z,2.10
2023-10-20T14:54:42.268Z,2.17
2023-10-20T14:57:10.402Z,2.05
2023-10-20T14:59:37.924Z,2.17
2023-10-20T15:02:05.244Z,2.90
2023-10-20T15:04:35.367Z,3.05
2023-10-20T15:07:02.599Z,2.17
2023-10-20T15:09:29.693Z,2.20
2023-10-20T15:11:57.094Z,1.75
2023-10-20T15:14:24.317Z,1.52
2023-10-20T15:16:51.493Z,1.55
2023-10-20T15:19:18.556Z,1.58
2023-10-20T15:21:45.643Z,0.98
2023-10-20T15:24:12.825Z,1.25
2023-10-20T15:26:39.912Z,1.20
2023-10-20T15:29:08.054Z,1.50
2023-10-20T15:31:35.149Z,1.20
2023-10-20T15:34:02.247Z,1.20
2023-10-20T15:36:29.407Z,1.10
2023-10-20T15:38:56.613Z,1.08
2023-10-20T15:41:23.833Z,1.20
2023-10-20T15:43:51.076Z,1.23
2023-10-20T15:46:18.212Z,1.27
2023-10-20T15:48:45.409Z,1.90
2023-10-20T15:51:12.678Z,0.77
2023-10-20T15:53:39.908Z,2.70
2023-10-20T15:56:07.083Z,2.00
2023-10-20T15:58:34.382Z,1.88
2023-10-20T16:01:04.939Z,1.23
2023-10-20T16:03:32.360Z,1.00
2023-10-20T16:05:59.777Z,1.02
2023-10-20T16:08:28.946Z,1.20
2023-10-20T16:10:56.745Z,1.30
2023-10-20T16:13:23.823Z,1.50
2023-10-20T16:15:50.942Z,1.67
2023-10-20T16:18:18.082Z,1.58
2023-10-20T16:20:46.887Z,0.98
2023-10-20T16:23:14.081Z,0.68
2023-10-20T16:25:41.224Z,1.20
2023-10-20T16:28:08.376Z,0.70
2023-10-20T16:30:40.221Z,1.27
2023-10-20T16:33:07.701Z,1.30
2023-10-20T16:35:35.192Z,1.02
2023-10-20T16:38:02.605Z,1.58
2023-10-20T16:40:29.787Z,1.35
2023-10-20T16:42:56.930Z,1.10
2023-10-20T16:45:24.147Z,0.90
2023-10-20T16:47:51.547Z,1.25
2023-10-20T16:50:18.771Z,1.15
2023-10-20T16:52:45.884Z,1.08
2023-10-20T16:55:13.076Z,1.10
2023-10-20T16:57:40.177Z,1.25
2023-10-20T17:00:07.590Z,1.80
2023-10-20T17:02:34.917Z,1.23
2023-10-20T17:05:02.141Z,1.42
2023-10-20T17:07:29.241Z,1.83
2023-10-20T17:09:58.821Z,1.40
2023-10-20T17:12:25.964Z,1.10
2023-10-20T17:14:53.066Z,1.27
2023-10-20T17:17:20.211Z,1.67
2023-10-20T17:19:47.287Z,1.67
2023-10-20T17:22:14.365Z,1.48
2023-10-20T17:24:42.020Z,1.40
2023-10-20T17:27:09.215Z,1.38
2023-10-20T17:29:36.512Z,1.33
2023-10-20T17:32:04.462Z,1.08
2023-10-20T17:34:31.651Z,1.40
2023-10-20T17:36:59.397Z,1.10
2023-10-20T17:39:26.493Z,1.05
2023-10-20T17:41:53.584Z,0.90
2023-10-20T17:44:21.947Z,1.50
2023-10-20T17:46:49.395Z,1.67
2023-10-20T17:49:16.485Z,1.45
2023-10-20T17:51:43.593Z,1.30
2023-10-20T17:54:10.759Z,1.10
2023-10-20T17:56:37.899Z,1.10
2023-10-20T17:59:05.142Z,1.85
2023-10-20T18:01:32.339Z,1.58
2023-10-20T18:03:59.493Z,1.50
2023-10-20T18:06:27.276Z,1.20
2023-10-20T18:08:54.657Z,1.17
2023-10-20T18:11:22.391Z,1.60
2023-10-20T18:13:51.997Z,3.28
2023-10-20T18:16:22.550Z,1.65
2023-10-20T18:18:50.506Z,1.30
2023-10-20T18:21:21.160Z,1.40
2023-10-20T18:23:48.780Z,7.60
2023-10-20T18:26:15.972Z,5.65
2023-10-20T18:28:43.123Z,1.70
2023-10-20T18:31:14.021Z,1.15
2023-10-20T18:33:41.772Z,1.17
2023-10-20T18:36:09.194Z,1.90
2023-10-20T18:38:36.359Z,3.30
2023-10-20T18:41:04.279Z,2.38
2023-10-20T18:43:31.599Z,0.98
2023-10-20T18:46:01.182Z,1.17
2023-10-20T18:48:28.939Z,1.17
2023-10-20T18:51:04.695Z,1.10
2023-10-20T18:53:31.954Z,1.10
2023-10-20T18:55:59.114Z,1.70
2023-10-20T18:58:26.291Z,1.38
2023-10-20T19:00:54.086Z,1.27
2023-10-20T19:03:21.523Z,1.00
2023-10-20T19:05:52.129Z,1.35
2023-10-20T19:08:19.844Z,1.52
2023-10-20T19:10:47.065Z,1.52
2023-10-20T19:13:16.165Z,1.15
2023-10-20T19:15:43.848Z,1.42
2023-10-20T19:18:11.171Z,1.17
2023-10-20T19:20:38.368Z,1.25
2023-10-20T19:23:08.440Z,1.58
2023-10-20T19:25:36.743Z,1.45
2023-10-20T19:28:05.337Z,1.50
2023-10-20T19:30:32.962Z,1.45
2023-10-20T19:33:00.142Z,1.38
2023-10-20T19:35:27.261Z,1.35
2023-10-20T19:37:54.322Z,1.50
2023-10-20T19:40:21.688Z,1.40
2023-10-20T19:42:48.842Z,1.55
2023-10-20T19:45:16.859Z,1.45
2023-10-20T19:47:44.345Z,1.63
2023-10-20T19:50:11.463Z,1.60
2023-10-20T19:52:39.331Z,1.65
2023-10-20T19:55:06.910Z,2.17
2023-10-20T19:57:34.014Z,1.83
2023-10-20T20:00:01.950Z,1.73
2023-10-20T20:02:29.118Z,1.88
2023-10-20T20:04:56.260Z,1.80
2023-10-20T20:07:24.701Z,2.00
2023-10-20T20:09:51.758Z,1.88
2023-10-20T20:12:18.841Z,1.83
2023-10-20T20:14:46.044Z,2.00
2023-10-20T20:17:13.103Z,1.98
2023-10-20T20:19:40.317Z,1.90
2023-10-20T20:22:07.367Z,1.38
2023-10-20T20:24:34.452Z,2.30
2023-10-20T20:27:02.032Z,2.25
2023-10-20T20:29:29.952Z,1.88
2023-10-20T20:31:57.031Z,2.35
2023-10-20T20:34:24.133Z,2.90
2023-10-20T20:36:51.904Z,2.22
2023-10-20T20:39:19.568Z,2.20
2023-10-20T20:41:46.726Z,1.83
2023-10-20T20:44:13.822Z,2.17
2023-10-20T20:46:41.361Z,2.15
2023-10-20T20:49:08.776Z,1.88
2023-10-20T20:51:37.179Z,1.75
2023-10-20T20:54:04.523Z,1.92
2023-10-20T20:56:31.641Z,1.63
2023-10-20T20:58:58.962Z,1.67
2023-10-20T21:01:26.300Z,1.48
2023-10-20T21:04:00.816Z,1.38
2023-10-20T21:06:28.525Z,1.30
2023-10-20T21:08:55.658Z,1.17
2023-10-20T21:11:22.736Z,1.65
2023-10-20T21:13:50.992Z,1.20
2023-10-20T21:16:18.158Z,1.20
2023-10-20T21:18:45.377Z,1.27
2023-10-20T21:21:14.639Z,1.02
2023-10-20T21:23:45.129Z,1.58
2023-10-20T21:26:12.709Z,1.27
2023-10-20T21:28:39.917Z,1.20
2023-10-20T21:31:08.027Z,1.50
2023-10-20T21:33:35.549Z,1.80
2023-10-20T21:36:02.720Z,1.30
2023-10-20T21:38:29.896Z,1.38
2023-10-20T21:40:59.793Z,1.17
2023-10-20T21:43:28.481Z,1.35
2023-10-20T21:45:56.603Z,1.42
2023-10-20T21:48:24.578Z,1.40
2023-10-20T21:50:58.377Z,1.48
2023-10-20T21:53:26.086Z,1.40
2023-10-20T21:56:10.060Z,1.70
2023-10-20T21:58:40.450Z,1.48
2023-10-20T22:01:09.878Z,1.30
2023-10-20T22:03:39.303Z,1.50
2023-10-20T22:06:07.410Z,1.50
2023-10-20T22:08:34.667Z,1.70
2023-10-20T22:11:01.956Z,1.40
2023-10-20T22:13:29.078Z,1.73
2023-10-20T22:15:56.752Z,1.65
2023-10-20T22:18:23.976Z,1.60
2023-10-20T22:20:51.242Z,1.48
2023-10-20T22:23:19.477Z,2.22
2023-10-20T22:25:46.652Z,1.98
2023-10-20T22:28:13.704Z,1.55
2023-10-20T22:30:41.149Z,1.75
2023-10-20T22:33:08.282Z,1.98
2023-10-20T22:35:35.500Z,1.98
2023-10-20T22:38:02.591Z,2.35
2023-10-20T22:40:29.717Z,1.90
2023-10-20T22:42:56.991Z,2.08
2023-10-20T22:45:24.104Z,1.77
2023-10-20T22:47:51.265Z,1.63
2023-10-20T22:50:21.613Z,1.83
2023-10-20T22:52:48.896Z,2.22
2023-10-20T22:55:16.291Z,2.72
2023-10-20T22:57:44.039Z,1.58
2023-10-20T23:00:11.622Z,2.10
2023-10-20T23:02:39.957Z,2.10
2023-10-20T23:05:08.043Z,1.85
2023-10-20T23:07:35.488Z,2.10
2023-10-20T23:10:04.442Z,2.00
2023-10-20T23:12:32.382Z,1.35
2023-10-20T23:14:59.692Z,1.55
2023-10-20T23:17:27.261Z,1.80
2023-10-20T23:19:54.714Z,1.40
2023-10-20T23:22:21.896Z,1.95
2023-10-20T23:24:49.025Z,1.65
2023-10-20T23:27:16.395Z,1.83
2023-10-20T23:29:43.775Z,1.85
2023-10-20T23:32:11.144Z,2.22
2023-10-20T23:34:38.262Z,1.98
2023-10-20T23:37:05.783Z,1.88
2023-10-20T23:39:34.424Z,1.83
2023-10-20T23:42:02.266Z,2.10
2023-10-20T23:44:30.861Z,1.38
2023-10-20T23:46:58.087Z,2.50
2023-10-20T23:49:25.237Z,2.13
2023-10-20T23:51:52.622Z,2.03
2023-10-20T23:54:19.887Z,2.25
2023-10-20T23:56:47.125Z,3.17
2023-10-20T23:59:14.270Z,2.88
